createdAt,value
2018-03-20T00:02:36.445Z,59.90
2018-03-20T00:05:12.091Z,60.30
2018-03-20T00:07:51.235Z,60.20
2018-03-20T00:10:28.650Z,60.00
2018-03-20T00:13:07.480Z,60.00
2018-03-20T00:15:45.951Z,60.10
2018-03-20T00:18:22.033Z,60.10
2018-03-20T00:20:59.908Z,60.20
2018-03-20T00:23:35.952Z,60.20
2018-03-20T00:26:12.180Z,60.10
2018-03-20T00:28:50.315Z,60.50
2018-03-20T00:31:26.992Z,61.00
2018-03-20T00:34:05.333Z,60.70
2018-03-20T00:36:40.374Z,60.90
2018-03-20T00:39:16.958Z,61.10
2018-03-20T00:41:54.893Z,61.70
2018-03-20T00:44:35.367Z,61.60
2018-03-20T00:47:10.931Z,61.70
2018-03-20T00:49:45.964Z,62.00
2018-03-20T00:52:22.692Z,62.40
2018-03-20T00:54:59.098Z,62.50
2018-03-20T00:57:35.938Z,62.20
2018-03-20T01:00:11.936Z,62.10
2018-03-20T01:02:48.312Z,61.80
2018-03-20T01:05:24.859Z,61.70
2018-03-20T01:08:00.687Z,61.80
2018-03-20T01:10:37.608Z,62.00
2018-03-20T01:13:14.030Z,62.40
2018-03-20T01:15:50.658Z,62.30
2018-03-20T01:18:26.947Z,62.70
2018-03-20T01:21:03.289Z,63.20
2018-03-20T01:23:42.864Z,63.70
2018-03-20T01:26:19.941Z,64.20
2018-03-20T01:28:57.353Z,64.80
2018-03-20T01:31:35.303Z,64.80
2018-03-20T01:34:10.415Z,65.40
2018-03-20T01:36:45.549Z,65.80
2018-03-20T01:39:20.982Z,66.20
2018-03-20T01:41:58.200Z,66.50
2018-03-20T01:44:33.249Z,66.90
2018-03-20T01:47:08.344Z,67.10
2018-03-20T01:49:43.201Z,67.60
2018-03-20T01:52:25.680Z,68.00
2018-03-20T01:55:01.187Z,68.20
2018-03-20T01:57:43.389Z,68.90
2018-03-20T02:00:21.167Z,69.50
2018-03-20T02:02:57.195Z,70.00
2018-03-20T02:05:34.355Z,69.90
2018-03-20T02:08:12.451Z,70.80
2018-03-20T02:10:49.116Z,71.20
2018-03-20T02:13:26.503Z,71.90
2018-03-20T02:16:04.720Z,71.90
2018-03-20T02:18:45.067Z,71.90
2018-03-20T02:21:21.837Z,72.60
2018-03-20T02:23:58.104Z,72.60
2018-03-20T02:26:35.081Z,72.50
2018-03-20T02:29:10.330Z,72.80
2018-03-20T02:31:47.631Z,73.40
2018-03-20T02:34:22.990Z,73.40
2018-03-20T02:37:00.629Z,73.10
2018-03-20T02:39:36.713Z,73.30
2018-03-20T02:42:13.062Z,73.60
2018-03-20T02:44:50.407Z,73.80
2018-03-20T02:47:26.862Z,73.80
2018-03-20T02:50:06.894Z,74.60
2018-03-20T02:52:45.486Z,74.20
2018-03-20T02:55:22.264Z,74.20
2018-03-20T02:57:58.684Z,74.50
2018-03-20T03:00:34.012Z,74.50
2018-03-20T03:03:04.182Z,74.40
2018-03-20T03:05:40.765Z,74.70
2018-03-20T03:08:18.456Z,74.90
2018-03-20T03:10:55.145Z,75.10
2018-03-20T03:13:34.186Z,76.10
2018-03-20T03:16:10.724Z,76.00
2018-03-20T03:18:48.444Z,76.70
2018-03-20T03:21:26.133Z,77.00
2018-03-20T03:24:08.403Z,77.50
2018-03-20T03:26:44.601Z,77.50
2018-03-20T03:29:20.680Z,78.00
2018-03-20T03:32:00.049Z,77.90
2018-03-20T03:34:36.826Z,78.20
2018-03-20T03:37:13.338Z,78.20
2018-03-20T03:39:51.794Z,77.70
2018-03-20T03:42:30.176Z,77.70
2018-03-20T03:45:06.060Z,78.20
2018-03-20T03:47:42.985Z,78.10
2018-03-20T03:50:19.530Z,78.50
2018-03-20T03:52:57.739Z,80.30
2018-03-20T03:55:34.696Z,81.90
2018-03-20T03:58:11.975Z,83.20
2018-03-20T04:00:49.613Z,84.70
2018-03-20T04:03:27.554Z,84.70
2018-03-20T04:06:04.442Z,84.20
2018-03-20T04:08:46.798Z,85.30
2018-03-20T04:11:23.605Z,86.50
2018-03-20T04:14:01.095Z,90.10
2018-03-20T04:16:38.655Z,91.10
2018-03-20T04:19:16.572Z,91.00
2018-03-20T04:21:53.928Z,91.60
2018-03-20T04:24:28.856Z,91.90
2018-03-20T04:27:05.390Z,92.20
2018-03-20T04:29:40.887Z,92.60
2018-03-20T04:32:16.265Z,92.80
2018-03-20T04:34:52.261Z,92.80
2018-03-20T04:37:29.084Z,92.80
2018-03-20T04:40:10.822Z,93.00
2018-03-20T04:42:47.803Z,93.60
2018-03-20T04:45:23.440Z,93.80
2018-03-20T04:48:00.218Z,94.40
2018-03-20T04:50:37.168Z,94.70
2018-03-20T04:53:13.162Z,95.40
2018-03-20T04:55:48.928Z,95.40
2018-03-20T04:58:25.036Z,95.70
2018-03-20T05:01:02.466Z,96.30
2018-03-20T05:03:44.774Z,96.30
2018-03-20T05:06:14.490Z,96.40
2018-03-20T05:08:50.171Z,96.30
2018-03-20T05:11:26.270Z,96.40
2018-03-20T05:14:08.526Z,96.80
2018-03-20T05:16:43.734Z,96.90
2018-03-20T05:19:36.924Z,97.00
2018-03-20T05:22:12.387Z,97.00
2018-03-20T05:27:43.458Z,97.20
2018-03-20T05:30:13.750Z,97.20
2018-03-20T05:32:49.330Z,97.20
2018-03-20T05:35:25.146Z,97.20
2018-03-20T05:38:01.889Z,97.40
2018-03-20T05:40:37.607Z,97.50
2018-03-20T05:43:14.145Z,97.90
2018-03-20T05:45:50.808Z,97.90
2018-03-20T05:48:47.056Z,98.00
2018-03-20T05:51:23.386Z,98.00
2018-03-20T05:56:54.584Z,99.00
2018-03-20T05:59:30.234Z,98.90
2018-03-20T06:02:05.789Z,99.20
2018-03-20T06:04:41.558Z,99.50
2018-03-20T06:07:17.760Z,99.90
2018-03-20T06:09:53.439Z,99.90
2018-03-20T06:12:29.572Z,99.90
2018-03-20T06:15:06.790Z,99.90
2018-03-20T06:17:44.776Z,99.90
2018-03-20T06:20:20.523Z,99.90
2018-03-20T06:22:56.261Z,99.90
2018-03-20T06:25:35.111Z,99.90
2018-03-20T06:28:10.530Z,99.90
2018-03-20T06:30:48.042Z,99.90
2018-03-20T06:33:26.821Z,99.90
2018-03-20T06:36:02.511Z,99.90
2018-03-20T06:38:39.298Z,99.90
2018-03-20T06:41:17.684Z,99.90
2018-03-20T06:43:54.790Z,99.90
2018-03-20T06:46:36.625Z,99.90
2018-03-20T06:49:15.941Z,99.90
2018-03-20T06:51:52.364Z,99.90
2018-03-20T06:54:30.313Z,99.90
2018-03-20T06:57:08.660Z,99.90
2018-03-20T06:59:45.241Z,99.90
2018-03-20T07:02:27.209Z,99.90
2018-03-20T07:05:03.062Z,99.90
2018-03-20T07:07:38.603Z,99.90
2018-03-20T07:10:17.390Z,99.90
2018-03-20T07:12:54.289Z,99.90
2018-03-20T07:15:33.774Z,99.90
2018-03-20T07:18:12.740Z,99.90
2018-03-20T07:20:50.126Z,99.90
2018-03-20T07:23:26.531Z,99.90
2018-03-20T07:26:05.688Z,99.90
2018-03-20T07:28:42.871Z,99.90
2018-03-20T07:31:19.568Z,99.90
2018-03-20T07:34:01.325Z,99.90
2018-03-20T07:36:38.029Z,99.90
2018-03-20T07:39:16.363Z,99.90
2018-03-20T07:41:55.000Z,99.90
2018-03-20T07:44:31.784Z,99.90
2018-03-20T07:47:09.457Z,99.90
2018-03-20T07:49:48.211Z,99.90
2018-03-20T07:52:29.866Z,99.90
2018-03-20T07:55:06.644Z,99.90
2018-03-20T07:57:43.337Z,99.90
2018-03-20T08:00:20.696Z,99.80
2018-03-20T08:02:57.072Z,98.20
2018-03-20T08:05:32.744Z,97.00
2018-03-20T08:08:09.909Z,96.60
2018-03-20T08:10:49.223Z,96.60
2018-03-20T08:13:26.511Z,97.30
2018-03-20T08:16:04.127Z,98.10
2018-03-20T08:18:40.104Z,98.40
2018-03-20T08:21:17.044Z,98.40
2018-03-20T08:23:54.574Z,98.30
2018-03-20T08:26:32.959Z,95.50
2018-03-20T08:29:08.589Z,95.50
2018-03-20T08:31:44.811Z,93.10
2018-03-20T08:34:21.095Z,93.50
2018-03-20T08:36:59.470Z,93.10
2018-03-20T08:39:38.092Z,92.80
2018-03-20T08:42:18.520Z,92.30
2018-03-20T08:44:57.426Z,92.30
2018-03-20T08:47:39.492Z,90.90
2018-03-20T08:50:15.030Z,90.20
2018-03-20T08:52:52.400Z,82.90
2018-03-20T08:55:29.958Z,83.40
2018-03-20T08:58:11.965Z,81.30
2018-03-20T09:00:48.905Z,81.40
2018-03-20T09:03:25.680Z,84.80
2018-03-20T09:06:03.928Z,84.90
2018-03-20T09:08:43.025Z,84.50
2018-03-20T09:11:21.134Z,82.40
2018-03-20T09:13:58.963Z,81.30
2018-03-20T09:16:36.537Z,84.30
2018-03-20T09:19:14.124Z,83.70
2018-03-20T09:21:53.130Z,81.60
2018-03-20T09:24:30.009Z,78.30
2018-03-20T09:27:05.805Z,77.00
2018-03-20T09:29:45.273Z,72.90
2018-03-20T09:32:23.368Z,68.00
2018-03-20T09:35:02.148Z,67.90
2018-03-20T09:37:40.945Z,68.20
2018-03-20T09:40:18.176Z,68.10
2018-03-20T09:42:55.966Z,67.00
2018-03-20T09:45:35.148Z,69.40
2018-03-20T09:48:12.292Z,64.00
2018-03-20T09:50:51.790Z,63.90
2018-03-20T09:53:25.355Z,60.90
2018-03-20T09:56:02.516Z,60.30
2018-03-20T09:58:41.748Z,64.30
2018-03-20T10:01:23.424Z,64.40
2018-03-20T10:04:00.258Z,63.80
2018-03-20T10:06:38.018Z,58.30
2018-03-20T10:09:19.660Z,58.30
2018-03-20T10:11:55.373Z,58.00
2018-03-20T10:14:31.549Z,57.50
2018-03-20T10:17:09.816Z,58.10
2018-03-20T10:19:46.355Z,56.40
2018-03-20T10:22:23.010Z,57.40
2018-03-20T10:24:59.477Z,54.90
2018-03-20T10:27:39.238Z,52.90
2018-03-20T10:30:18.278Z,53.00
2018-03-20T10:32:55.656Z,52.60
2018-03-20T10:35:36.378Z,51.80
2018-03-20T10:38:13.388Z,51.30
2018-03-20T10:40:54.167Z,48.70
2018-03-20T10:43:32.024Z,48.70
2018-03-20T10:46:10.448Z,47.00
2018-03-20T10:48:47.619Z,48.30
2018-03-20T10:51:24.900Z,46.20
2018-03-20T10:54:02.010Z,47.70
2018-03-20T10:56:39.191Z,46.10
2018-03-20T10:59:16.546Z,43.80
2018-03-20T11:02:03.704Z,43.70
2018-03-20T11:04:40.896Z,42.20
2018-03-20T11:07:21.218Z,41.20
2018-03-20T11:10:01.007Z,41.00
2018-03-20T11:12:38.670Z,40.00
2018-03-20T11:15:15.083Z,39.60
2018-03-20T11:17:53.060Z,38.70
2018-03-20T11:20:34.973Z,38.60
2018-03-20T11:23:13.393Z,36.90
2018-03-20T11:25:54.075Z,35.20
2018-03-20T11:28:31.232Z,35.20
2018-03-20T11:31:08.292Z,36.70
2018-03-20T11:33:43.890Z,33.30
2018-03-20T11:36:20.570Z,32.70
2018-03-20T11:38:58.615Z,30.90
2018-03-20T11:41:38.509Z,32.60
2018-03-20T11:44:17.802Z,34.30
2018-03-20T11:46:55.353Z,34.30
2018-03-20T11:49:32.266Z,32.60
2018-03-20T11:52:15.845Z,31.40
2018-03-20T11:54:51.126Z,30.40
2018-03-20T11:57:27.851Z,30.70
2018-03-20T12:00:06.169Z,31.00
2018-03-20T12:02:43.245Z,31.00
2018-03-20T12:05:20.855Z,29.40
2018-03-20T12:08:02.946Z,29.40
2018-03-20T12:10:41.068Z,28.70
2018-03-20T12:13:17.680Z,28.70
2018-03-20T12:15:53.333Z,28.10
2018-03-20T12:18:31.703Z,28.10
2018-03-20T12:21:09.505Z,28.20
2018-03-20T12:23:48.469Z,28.40
2018-03-20T12:26:27.578Z,28.90
2018-03-20T12:29:08.995Z,28.30
2018-03-20T12:31:46.514Z,28.60
2018-03-20T12:34:24.592Z,28.40
2018-03-20T12:37:01.660Z,30.00
2018-03-20T12:39:38.068Z,28.20
2018-03-20T12:42:18.417Z,26.80
2018-03-20T12:44:55.817Z,26.10
2018-03-20T12:47:31.703Z,26.40
2018-03-20T12:50:08.756Z,26.40
2018-03-20T12:52:49.462Z,28.80
2018-03-20T12:55:28.360Z,28.80
2018-03-20T12:58:10.444Z,29.00
2018-03-20T13:00:45.789Z,27.20
2018-03-20T13:03:23.723Z,27.60
2018-03-20T13:06:01.949Z,27.60
2018-03-20T13:08:40.832Z,27.60
2018-03-20T13:11:17.328Z,27.60
2018-03-20T13:13:56.000Z,27.60
2018-03-20T13:16:33.949Z,30.00
2018-03-20T13:19:11.373Z,30.00
2018-03-20T13:21:48.137Z,30.40
2018-03-20T13:24:30.724Z,30.40
2018-03-20T13:27:08.764Z,29.80
2018-03-20T13:29:46.303Z,29.80
2018-03-20T13:32:23.965Z,31.20
2018-03-20T13:35:03.503Z,31.00
2018-03-20T13:37:39.032Z,30.30
2018-03-20T13:40:13.915Z,31.10
2018-03-20T13:42:50.216Z,31.00
2018-03-20T13:45:26.543Z,31.00
2018-03-20T13:48:03.144Z,29.50
2018-03-20T13:50:38.572Z,29.50
2018-03-20T13:53:30.380Z,29.70
2018-03-20T13:56:07.673Z,29.60
2018-03-20T13:58:43.454Z,28.90
2018-03-20T14:01:20.777Z,28.80
2018-03-20T14:04:00.196Z,28.70
2018-03-20T14:06:35.577Z,28.70
2018-03-20T14:09:11.793Z,27.10
2018-03-20T14:11:50.985Z,27.10
2018-03-20T14:14:28.034Z,26.30
2018-03-20T14:17:05.140Z,25.70
2018-03-20T14:19:44.668Z,25.90
2018-03-20T14:22:25.561Z,25.80
2018-03-20T14:25:03.738Z,25.80
2018-03-20T14:27:40.822Z,25.80
2018-03-20T14:30:22.858Z,25.80
2018-03-20T14:33:00.328Z,24.80
2018-03-20T14:35:37.846Z,25.50
2018-03-20T14:38:23.067Z,25.50
2018-03-20T14:41:00.609Z,25.30
2018-03-20T14:43:38.954Z,25.80
2018-03-20T14:46:15.344Z,26.70
2018-03-20T14:48:52.533Z,25.70
2018-03-20T14:51:31.401Z,26.60
2018-03-20T14:54:12.713Z,25.40
2018-03-20T14:56:49.428Z,25.40
2018-03-20T14:59:21.276Z,25.00
2018-03-20T15:01:58.298Z,25.00
2018-03-20T15:04:34.663Z,24.70
2018-03-20T15:07:10.764Z,25.20
2018-03-20T15:09:46.988Z,24.80
2018-03-20T15:12:25.927Z,25.10
2018-03-20T15:15:05.528Z,25.20
2018-03-20T15:17:44.132Z,26.80
2018-03-20T15:20:22.220Z,26.10
2018-03-20T15:23:03.901Z,26.20
2018-03-20T15:25:42.334Z,25.00
2018-03-20T15:28:19.184Z,23.70
2018-03-20T15:30:56.859Z,23.60
2018-03-20T15:33:34.026Z,24.60
2018-03-20T15:36:10.653Z,27.30
2018-03-20T15:38:47.698Z,27.20
2018-03-20T15:41:26.278Z,28.70
2018-03-20T15:44:05.991Z,30.20
2018-03-20T15:46:42.527Z,29.80
2018-03-20T15:49:18.833Z,31.80
2018-03-20T15:51:56.098Z,33.80
2018-03-20T15:54:32.671Z,34.00
2018-03-20T15:57:08.376Z,35.90
2018-03-20T15:59:50.945Z,34.50
2018-03-20T16:02:30.780Z,34.50
2018-03-20T16:05:07.822Z,35.60
2018-03-20T16:07:44.538Z,34.80
2018-03-20T16:10:19.573Z,34.60
2018-03-20T16:12:58.048Z,35.50
2018-03-20T16:15:34.960Z,36.00
2018-03-20T16:18:13.031Z,36.60
2018-03-20T16:20:53.740Z,36.10
2018-03-20T16:23:30.902Z,34.80
2018-03-20T16:26:10.576Z,34.20
2018-03-20T16:28:48.276Z,33.80
2018-03-20T16:31:30.791Z,33.70
2018-03-20T16:34:08.305Z,33.20
2018-03-20T16:36:47.075Z,35.10
2018-03-20T16:39:24.406Z,35.10
2018-03-20T16:42:01.816Z,37.10
2018-03-20T16:44:38.617Z,37.10
2018-03-20T16:47:15.666Z,37.00
2018-03-20T16:49:58.533Z,37.00
2018-03-20T16:52:35.223Z,37.00
2018-03-20T16:55:11.414Z,37.90
2018-03-20T16:57:50.187Z,36.00
2018-03-20T17:00:27.508Z,36.00
2018-03-20T17:03:09.718Z,35.50
2018-03-20T17:05:49.284Z,37.30
2018-03-20T17:08:26.320Z,37.20
2018-03-20T17:11:05.132Z,38.40
2018-03-20T17:13:44.758Z,39.40
2018-03-20T17:16:21.025Z,38.90
2018-03-20T17:18:57.754Z,39.40
2018-03-20T17:21:35.277Z,40.10
2018-03-20T17:24:19.417Z,40.10
2018-03-20T17:26:57.570Z,39.60
2018-03-20T17:29:34.325Z,39.70
2018-03-20T17:32:14.053Z,40.20
2018-03-20T17:34:50.914Z,41.10
2018-03-20T17:37:34.430Z,41.50
2018-03-20T17:40:11.213Z,42.50
2018-03-20T17:42:48.809Z,43.40
2018-03-20T17:45:24.555Z,43.30
2018-03-20T17:48:02.533Z,44.10
2018-03-20T17:50:40.200Z,44.50
2018-03-20T17:53:17.491Z,44.60
2018-03-20T17:56:00.924Z,45.20
2018-03-20T17:58:37.030Z,45.30
2018-03-20T18:01:15.133Z,45.80
2018-03-20T18:03:53.272Z,46.20
2018-03-20T18:06:31.458Z,46.20
2018-03-20T18:09:09.149Z,47.70
2018-03-20T18:11:46.116Z,48.20
2018-03-20T18:14:22.714Z,48.90
2018-03-20T18:17:02.625Z,48.90
2018-03-20T18:19:40.979Z,49.50
2018-03-20T18:22:17.923Z,50.50
2018-03-20T18:24:54.006Z,51.10
2018-03-20T18:27:35.696Z,51.80
2018-03-20T18:30:13.272Z,51.90
2018-03-20T18:32:48.952Z,51.70
2018-03-20T18:35:19.092Z,51.40
2018-03-20T18:37:55.085Z,51.60
2018-03-20T18:40:33.991Z,51.70
2018-03-20T18:43:11.491Z,51.70
2018-03-20T18:45:47.366Z,51.70
2018-03-20T18:48:23.956Z,51.60
2018-03-20T18:51:08.238Z,52.00
2018-03-20T18:53:46.856Z,52.00
2018-03-20T18:56:23.155Z,52.00
2018-03-20T18:58:58.772Z,52.00
2018-03-20T19:01:35.755Z,52.00
2018-03-20T19:04:15.009Z,52.30
2018-03-20T19:06:50.548Z,52.20
2018-03-20T19:09:26.479Z,52.10
2018-03-20T19:12:03.891Z,52.10
2018-03-20T19:14:41.536Z,52.10
2018-03-20T19:17:23.525Z,52.50
2018-03-20T19:20:01.402Z,52.90
2018-03-20T19:22:43.638Z,53.40
2018-03-20T19:25:21.694Z,53.50
2018-03-20T19:27:57.760Z,53.40
2018-03-20T19:30:34.794Z,53.60
2018-03-20T19:33:10.181Z,53.90
2018-03-20T19:35:47.675Z,54.10
2018-03-20T19:38:27.040Z,54.30
2018-03-20T19:41:02.646Z,54.40
2018-03-20T19:43:39.940Z,54.50
2018-03-20T19:46:17.485Z,55.10
2018-03-20T19:48:55.033Z,55.20
2018-03-20T19:51:31.643Z,54.90
2018-03-20T19:54:08.756Z,56.30
2018-03-20T19:56:44.799Z,55.60
2018-03-20T19:59:20.861Z,56.00
2018-03-20T20:01:58.192Z,56.10
2018-03-20T20:04:35.794Z,56.50
2018-03-20T20:07:12.933Z,56.70
2018-03-20T20:09:48.812Z,56.70
2018-03-20T20:12:27.301Z,56.70
2018-03-20T20:15:06.100Z,56.90
2018-03-20T20:17:42.072Z,57.00
2018-03-20T20:20:20.930Z,57.30
2018-03-20T20:23:01.108Z,57.10
2018-03-20T20:25:38.360Z,57.10
2018-03-20T20:28:20.807Z,57.30
2018-03-20T20:30:56.887Z,57.40
2018-03-20T20:33:33.851Z,57.50
2018-03-20T20:36:11.002Z,57.40
2018-03-20T20:38:45.590Z,57.70
2018-03-20T20:41:23.354Z,57.60
2018-03-20T20:44:00.349Z,57.60
2018-03-20T20:46:37.595Z,57.90
2018-03-20T20:49:15.618Z,58.40
2018-03-20T20:51:51.091Z,58.40
2018-03-20T20:54:30.658Z,59.20
2018-03-20T20:57:07.136Z,58.60
2018-03-20T20:59:36.720Z,58.60
2018-03-20T21:02:14.387Z,59.00
2018-03-20T21:04:51.116Z,59.00
2018-03-20T21:07:28.201Z,59.30
2018-03-20T21:10:04.898Z,59.50
2018-03-20T21:12:40.875Z,59.70
2018-03-20T21:15:17.812Z,59.80
2018-03-20T21:17:54.793Z,60.10
2018-03-20T21:20:30.412Z,60.30
2018-03-20T21:23:09.540Z,60.70
2018-03-20T21:25:45.244Z,61.00
2018-03-20T21:28:23.218Z,61.80
2018-03-20T21:30:58.516Z,61.80
2018-03-20T21:33:36.396Z,62.10
2018-03-20T21:36:17.734Z,62.10
2018-03-20T21:38:53.474Z,62.50
2018-03-20T21:41:30.419Z,63.30
2018-03-20T21:44:09.062Z,63.20
2018-03-20T21:46:45.646Z,64.10
2018-03-20T21:49:22.380Z,64.10
2018-03-20T21:51:59.251Z,64.60
2018-03-20T21:54:41.113Z,65.10
2018-03-20T21:57:23.009Z,65.50
2018-03-20T21:59:58.791Z,66.00
2018-03-20T22:02:35.434Z,66.30
2018-03-20T22:05:11.536Z,66.70
2018-03-20T22:07:47.853Z,67.20
2018-03-20T22:10:23.543Z,67.50
2018-03-20T22:13:00.423Z,67.70
2018-03-20T22:15:36.718Z,68.00
2018-03-20T22:18:14.260Z,68.10
2018-03-20T22:20:50.840Z,68.10
2018-03-20T22:23:26.036Z,68.40
2018-03-20T22:26:02.943Z,68.70
2018-03-20T22:28:41.046Z,69.40
2018-03-20T22:31:17.324Z,69.70
2018-03-20T22:33:54.311Z,70.30
2018-03-20T22:36:29.788Z,71.00
2018-03-20T22:39:06.959Z,71.90
2018-03-20T22:41:42.480Z,71.90
2018-03-20T22:44:20.788Z,72.20
2018-03-20T22:46:57.121Z,72.60
2018-03-20T22:49:32.167Z,73.10
2018-03-20T22:52:09.156Z,73.50
2018-03-20T22:54:44.390Z,73.70
2018-03-20T22:57:20.858Z,73.70
2018-03-20T22:59:57.128Z,73.90
2018-03-20T23:02:35.679Z,74.20
2018-03-20T23:05:06.091Z,75.10
2018-03-20T23:07:41.809Z,74.80
2018-03-20T23:10:17.060Z,75.10
2018-03-20T23:12:53.325Z,75.30
2018-03-20T23:15:35.229Z,75.40
2018-03-20T23:18:10.447Z,75.30
2018-03-20T23:20:47.223Z,75.60
2018-03-20T23:23:24.714Z,75.60
2018-03-20T23:26:01.824Z,75.80
2018-03-20T23:28:38.803Z,76.20
2018-03-20T23:31:16.124Z,76.30
2018-03-20T23:33:52.683Z,76.90
2018-03-20T23:36:28.010Z,76.90
2018-03-20T23:39:03.987Z,77.10
2018-03-20T23:41:41.000Z,77.30
2018-03-20T23:44:17.568Z,77.30
2018-03-20T23:46:54.154Z,77.50
2018-03-20T23:49:30.686Z,77.80
2018-03-20T23:52:00.832Z,78.20
2018-03-20T23:54:36.206Z,78.20
2018-03-20T23:57:06.634Z,78.50
2018-03-20T23:59:39.399Z,78.40
